createdAt,value
2022-10-05T00:01:23.592Z,62.10
2022-10-05T00:03:53.357Z,62.10
2022-10-05T00:06:20.640Z,62.00
2022-10-05T00:08:47.786Z,61.90
2022-10-05T00:11:17.728Z,62.10
2022-10-05T00:13:45.260Z,62.10
2022-10-05T00:16:16.996Z,62.10
2022-10-05T00:18:48.932Z,62.90
2022-10-05T00:21:27.474Z,61.90
2022-10-05T00:23:57.633Z,61.90
2022-10-05T00:26:32.956Z,61.90
2022-10-05T00:29:02.211Z,61.90
2022-10-05T00:31:32.500Z,62.80
2022-10-05T00:34:00.223Z,61.80
2022-10-05T00:36:28.207Z,61.70
2022-10-05T00:38:55.690Z,61.90
2022-10-05T00:41:39.343Z,61.60
2022-10-05T00:44:15.525Z,61.60
2022-10-05T00:46:42.749Z,61.60
2022-10-05T00:49:16.338Z,61.80
2022-10-05T00:51:50.494Z,61.50
2022-10-05T00:54:36.838Z,61.40
2022-10-05T00:57:22.738Z,61.30
2022-10-05T01:00:05.761Z,61.60
2022-10-05T01:02:48.526Z,61.40
2022-10-05T01:05:28.349Z,61.50
2022-10-05T01:08:07.776Z,61.40
2022-10-05T01:10:45.525Z,61.40
2022-10-05T01:13:33.234Z,61.40
2022-10-05T01:16:09.959Z,61.40
2022-10-05T01:19:05.122Z,61.40
2022-10-05T01:21:42.941Z,61.30
2022-10-05T01:24:18.917Z,61.30
2022-10-05T01:26:50.122Z,61.20
2022-10-05T01:29:34.884Z,61.20
2022-10-05T01:32:02.504Z,61.30
2022-10-05T01:34:52.559Z,61.30
2022-10-05T01:37:23.003Z,61.20
2022-10-05T01:39:58.940Z,61.20
2022-10-05T01:43:04.326Z,61.10
2022-10-05T01:45:58.430Z,61.10
2022-10-05T01:49:03.961Z,61.20
2022-10-05T01:51:43.682Z,61.30
2022-10-05T01:54:39.668Z,61.30
2022-10-05T01:57:44.203Z,61.30
2022-10-05T02:00:14.495Z,61.20
2022-10-05T02:02:56.580Z,61.30
2022-10-05T02:05:38.091Z,61.20
2022-10-05T02:11:13.249Z,61.10
2022-10-05T02:13:48.481Z,61.00
2022-10-05T02:16:32.079Z,61.00
2022-10-05T02:19:20.757Z,61.10
2022-10-05T02:21:58.631Z,61.20
2022-10-05T02:24:32.356Z,61.20
2022-10-05T02:27:00.800Z,61.30
2022-10-05T02:29:33.906Z,61.20
2022-10-05T02:32:06.240Z,61.30
2022-10-05T02:34:40.920Z,61.30
2022-10-05T02:37:56.067Z,61.40
2022-10-05T02:40:29.576Z,61.40
2022-10-05T02:43:21.752Z,61.40
2022-10-05T02:46:27.324Z,61.20
2022-10-05T02:49:10.560Z,61.20
2022-10-05T02:52:07.034Z,61.20
2022-10-05T02:55:02.234Z,61.20
2022-10-05T02:57:38.732Z,61.20
2022-10-05T03:00:09.710Z,61.20
2022-10-05T03:02:49.758Z,61.30
2022-10-05T03:05:32.154Z,61.30
2022-10-05T03:08:14.641Z,61.10
2022-10-05T03:11:07.361Z,61.10
2022-10-05T03:14:01.111Z,61.20
2022-10-05T03:16:36.562Z,61.40
2022-10-05T03:19:28.829Z,61.50
2022-10-05T03:22:31.396Z,61.50
2022-10-05T03:25:23.493Z,61.60
2022-10-05T03:27:57.957Z,61.50
2022-10-05T03:30:26.741Z,61.60
2022-10-05T03:33:13.880Z,61.50
2022-10-05T03:35:47.678Z,61.50
2022-10-05T03:38:20.688Z,61.50
2022-10-05T03:41:02.203Z,61.50
2022-10-05T03:43:51.128Z,61.40
2022-10-05T03:46:19.769Z,61.40
2022-10-05T03:48:56.726Z,61.50
2022-10-05T03:51:36.419Z,61.40
2022-10-05T03:54:08.727Z,61.40
2022-10-05T03:57:21.853Z,61.40
2022-10-05T04:00:16.161Z,61.50
2022-10-05T04:03:11.177Z,61.50
2022-10-05T04:06:12.521Z,61.40
2022-10-05T04:08:50.627Z,61.40
2022-10-05T04:11:47.042Z,61.50
2022-10-05T04:14:30.144Z,61.50
2022-10-05T04:17:03.137Z,61.40
2022-10-05T04:19:39.323Z,61.50
2022-10-05T04:22:19.687Z,61.60
2022-10-05T04:24:56.153Z,61.70
2022-10-05T04:27:30.991Z,61.80
2022-10-05T04:30:08.656Z,62.00
2022-10-05T04:32:38.130Z,62.00
2022-10-05T04:35:44.847Z,62.00
2022-10-05T04:38:40.130Z,62.10
2022-10-05T04:41:36.246Z,62.00
2022-10-05T04:44:20.761Z,62.00
2022-10-05T04:47:22.696Z,62.10
2022-10-05T04:49:57.108Z,61.80
2022-10-05T04:52:43.565Z,61.80
2022-10-05T04:55:32.615Z,62.00
2022-10-05T04:58:28.079Z,62.00
2022-10-05T05:01:20.641Z,62.10
2022-10-05T05:04:26.507Z,62.10
2022-10-05T05:07:30.291Z,62.10
2022-10-05T05:10:06.196Z,62.20
2022-10-05T05:12:50.962Z,62.20
2022-10-05T05:15:37.222Z,62.20
2022-10-05T05:18:07.458Z,62.20
2022-10-05T05:21:09.158Z,62.20
2022-10-05T05:23:42.611Z,62.50
2022-10-05T05:26:17.687Z,62.60
2022-10-05T05:28:59.262Z,62.90
2022-10-05T05:31:53.040Z,63.10
2022-10-05T05:34:54.943Z,63.10
2022-10-05T05:37:57.454Z,63.20
2022-10-05T05:40:33.551Z,63.10
2022-10-05T05:43:09.272Z,63.10
2022-10-05T05:46:12.350Z,63.10
2022-10-05T05:48:46.568Z,63.20
2022-10-05T05:51:39.996Z,63.00
2022-10-05T05:54:16.942Z,63.00
2022-10-05T05:56:53.577Z,63.20
2022-10-05T05:59:24.551Z,63.10
2022-10-05T06:02:14.957Z,63.60
2022-10-05T06:04:47.243Z,63.40
2022-10-05T06:07:30.396Z,63.20
2022-10-05T06:10:41.567Z,63.50
2022-10-05T06:13:32.827Z,63.50
2022-10-05T06:16:31.949Z,63.60
2022-10-05T06:19:05.858Z,63.60
2022-10-05T06:22:05.859Z,64.30
2022-10-05T06:25:04.254Z,66.10
2022-10-05T06:27:36.754Z,67.50
2022-10-05T06:30:07.899Z,68.40
2022-10-05T06:32:50.243Z,68.40
2022-10-05T06:35:43.535Z,67.30
2022-10-05T06:38:29.096Z,67.00
2022-10-05T06:41:19.634Z,64.80
2022-10-05T06:44:00.658Z,60.80
2022-10-05T06:47:02.040Z,60.00
2022-10-05T06:50:13.366Z,57.60
2022-10-05T06:53:05.362Z,55.10
2022-10-05T06:55:59.088Z,51.80
2022-10-05T06:58:54.820Z,50.90
2022-10-05T07:01:45.566Z,49.70
2022-10-05T07:04:35.961Z,50.20
2022-10-05T07:07:18.736Z,49.10
2022-10-05T07:10:09.176Z,48.40
2022-10-05T07:13:16.501Z,46.80
2022-10-05T07:16:21.982Z,42.80
2022-10-05T07:19:36.442Z,43.80
2022-10-05T07:22:12.309Z,42.90
2022-10-05T07:24:51.217Z,43.10
2022-10-05T07:27:24.775Z,42.80
2022-10-05T07:30:10.627Z,42.20
2022-10-05T07:32:55.484Z,42.10
2022-10-05T07:36:19.562Z,41.20
2022-10-05T07:38:59.143Z,41.10
2022-10-05T07:41:44.182Z,39.60
2022-10-05T07:44:31.460Z,38.90
2022-10-05T07:47:23.691Z,37.30
2022-10-05T07:50:04.132Z,37.10
2022-10-05T07:52:41.085Z,36.20
2022-10-05T07:55:22.992Z,36.50
2022-10-05T07:58:27.760Z,35.10
2022-10-05T08:01:19.907Z,36.40
2022-10-05T08:04:30.985Z,36.20
2022-10-05T08:07:06.511Z,36.50
2022-10-05T08:09:45.843Z,37.10
2022-10-05T08:12:24.478Z,36.20
2022-10-05T08:15:11.991Z,36.20
2022-10-05T08:17:54.564Z,36.50
2022-10-05T08:20:29.800Z,36.20
2022-10-05T08:23:02.869Z,35.60
2022-10-05T08:25:39.110Z,36.40
2022-10-05T08:28:23.265Z,36.60
2022-10-05T08:31:08.681Z,37.30
2022-10-05T08:33:50.605Z,36.80
2022-10-05T08:36:26.632Z,37.40
2022-10-05T08:38:57.022Z,37.40
2022-10-05T08:41:39.398Z,37.20
2022-10-05T08:44:24.783Z,36.90
2022-10-05T08:47:20.578Z,37.00
2022-10-05T08:50:09.592Z,36.70
2022-10-05T08:52:59.494Z,35.70
2022-10-05T08:55:46.461Z,35.90
2022-10-05T08:58:51.652Z,35.70
2022-10-05T09:01:40.547Z,35.20
2022-10-05T09:04:58.561Z,35.20
2022-10-05T09:07:44.825Z,33.60
2022-10-05T09:10:31.354Z,33.10
2022-10-05T09:13:25.996Z,33.20
2022-10-05T09:20:18.007Z,31.40
2022-10-05T09:27:17.059Z,32.30
2022-10-05T09:30:03.955Z,32.90
2022-10-05T09:33:11.685Z,31.80
2022-10-05T09:36:02.134Z,31.70
2022-10-05T09:38:57.002Z,31.70
2022-10-05T09:41:36.306Z,31.80
2022-10-05T09:44:15.395Z,31.50
2022-10-05T09:46:48.641Z,31.20
2022-10-05T09:49:33.548Z,31.20
2022-10-05T09:52:19.301Z,32.10
2022-10-05T09:55:09.016Z,31.80
2022-10-05T09:58:14.788Z,31.40
2022-10-05T10:01:09.259Z,31.90
2022-10-05T10:03:45.545Z,32.80
2022-10-05T10:06:51.715Z,32.80
2022-10-05T10:09:33.077Z,31.90
2022-10-05T10:12:40.073Z,31.80
2022-10-05T10:15:25.713Z,31.90
2022-10-05T10:17:55.777Z,31.60
2022-10-05T10:20:44.761Z,31.50
2022-10-05T10:24:14.878Z,31.80
2022-10-05T10:26:44.553Z,32.50
2022-10-05T10:29:30.589Z,33.30
2022-10-05T10:32:26.472Z,32.90
2022-10-05T10:34:53.433Z,33.50
2022-10-05T10:37:59.081Z,33.30
2022-10-05T10:40:43.150Z,33.30
2022-10-05T10:43:29.554Z,33.30
2022-10-05T10:46:24.229Z,33.60
2022-10-05T10:48:59.593Z,34.30
2022-10-05T10:51:45.409Z,33.60
2022-10-05T10:54:33.555Z,33.60
2022-10-05T10:57:12.493Z,33.60
2022-10-05T11:00:17.768Z,33.70
2022-10-05T11:02:48.190Z,33.30
2022-10-05T11:05:48.746Z,34.00
2022-10-05T11:08:32.058Z,33.90
2022-10-05T11:11:36.845Z,34.00
2022-10-05T11:14:06.912Z,33.30
2022-10-05T11:17:06.787Z,32.70
2022-10-05T11:19:46.264Z,32.80
2022-10-05T11:22:48.395Z,33.40
2022-10-05T11:25:21.376Z,33.80
2022-10-05T11:28:18.777Z,34.20
2022-10-05T11:31:01.813Z,35.10
2022-10-05T11:33:58.002Z,34.60
2022-10-05T11:36:54.578Z,34.10
2022-10-05T11:39:30.718Z,34.40
2022-10-05T11:42:13.229Z,35.10
2022-10-05T11:44:59.713Z,35.40
2022-10-05T11:47:45.578Z,35.90
2022-10-05T11:50:21.745Z,36.50
2022-10-05T11:52:58.965Z,36.20
2022-10-05T11:55:34.760Z,36.50
2022-10-05T11:58:27.611Z,36.80
2022-10-05T12:01:44.666Z,37.50
2022-10-05T12:04:45.683Z,37.80
2022-10-05T12:07:27.992Z,37.80
2022-10-05T12:10:21.336Z,37.30
2022-10-05T12:13:13.320Z,37.40
2022-10-05T12:16:05.155Z,37.70
2022-10-05T12:18:32.771Z,37.90
2022-10-05T12:21:12.314Z,38.20
2022-10-05T12:24:00.608Z,37.90
2022-10-05T12:27:08.725Z,37.70
2022-10-05T12:29:44.583Z,37.80
2022-10-05T12:32:16.300Z,38.10
2022-10-05T12:34:48.721Z,37.90
2022-10-05T12:37:37.294Z,38.20
2022-10-05T12:40:18.781Z,38.10
2022-10-05T12:43:20.838Z,38.70
2022-10-05T12:46:23.506Z,39.60
2022-10-05T12:48:56.218Z,39.60
2022-10-05T12:51:36.944Z,39.10
2022-10-05T12:54:27.396Z,39.10
2022-10-05T12:57:06.050Z,39.30
2022-10-05T12:59:57.294Z,39.50
2022-10-05T13:02:39.464Z,40.00
2022-10-05T13:05:09.664Z,40.10
2022-10-05T13:07:50.154Z,40.30
2022-10-05T13:10:41.127Z,40.60
2022-10-05T13:13:32.117Z,40.80
2022-10-05T13:16:23.489Z,41.00
2022-10-05T13:18:50.864Z,41.90
2022-10-05T13:21:21.500Z,41.30
2022-10-05T13:23:57.122Z,41.60
2022-10-05T13:26:33.576Z,41.60
2022-10-05T13:29:22.339Z,41.70
2022-10-05T13:31:56.720Z,42.10
2022-10-05T13:34:52.594Z,42.20
2022-10-05T13:38:06.904Z,42.40
2022-10-05T13:41:08.828Z,42.50
2022-10-05T13:44:03.066Z,42.90
2022-10-05T13:47:13.110Z,42.60
2022-10-05T13:52:21.702Z,43.10
2022-10-05T13:54:59.072Z,43.00
2022-10-05T13:57:53.102Z,43.30
2022-10-05T14:00:26.294Z,42.80
2022-10-05T14:02:56.873Z,42.60
2022-10-05T14:05:29.371Z,43.00
2022-10-05T14:08:02.488Z,43.50
2022-10-05T14:10:33.996Z,43.80
2022-10-05T14:13:16.895Z,43.80
2022-10-05T14:16:18.480Z,43.90
2022-10-05T14:18:59.756Z,44.10
2022-10-05T14:21:31.297Z,44.20
2022-10-05T14:24:43.563Z,44.70
2022-10-05T14:27:18.697Z,45.20
2022-10-05T14:30:17.123Z,45.00
2022-10-05T14:33:02.313Z,45.20
2022-10-05T14:35:53.940Z,45.50
2022-10-05T14:38:22.716Z,45.90
2022-10-05T14:41:08.451Z,45.70
2022-10-05T14:43:37.446Z,46.00
2022-10-05T14:46:18.144Z,45.80
2022-10-05T14:48:47.865Z,45.90
2022-10-05T14:51:33.700Z,46.10
2022-10-05T14:54:02.441Z,45.90
2022-10-05T14:56:49.410Z,45.70
2022-10-05T14:59:53.913Z,45.60
2022-10-05T15:02:40.236Z,45.20
2022-10-05T15:05:24.795Z,45.20
2022-10-05T15:07:57.326Z,45.00
2022-10-05T15:10:34.669Z,45.20
2022-10-05T15:13:31.353Z,45.00
2022-10-05T15:16:05.960Z,45.20
2022-10-05T15:18:45.581Z,45.20
2022-10-05T15:21:31.352Z,45.40
2022-10-05T15:24:06.307Z,45.40
2022-10-05T15:26:49.114Z,45.50
2022-10-05T15:29:42.205Z,45.60
2022-10-05T15:32:41.621Z,45.80
2022-10-05T15:35:27.937Z,45.90
2022-10-05T15:38:25.688Z,45.90
2022-10-05T15:41:01.320Z,46.10
2022-10-05T15:43:58.661Z,46.00
2022-10-05T15:46:35.660Z,46.40
2022-10-05T15:49:12.763Z,46.50
2022-10-05T15:52:00.295Z,46.60
2022-10-05T15:54:57.393Z,46.70
2022-10-05T15:57:37.484Z,46.80
2022-10-05T16:00:20.565Z,46.80
2022-10-05T16:03:29.542Z,46.90
2022-10-05T16:06:18.642Z,47.10
2022-10-05T16:08:55.485Z,47.10
2022-10-05T16:11:47.366Z,47.10
2022-10-05T16:14:15.141Z,47.20
2022-10-05T16:16:53.594Z,47.30
2022-10-05T16:19:20.652Z,47.20
2022-10-05T16:21:54.209Z,47.40
2022-10-05T16:24:24.177Z,47.50
2022-10-05T16:27:10.494Z,47.70
2022-10-05T16:29:52.889Z,47.90
2022-10-05T16:32:26.131Z,47.90
2022-10-05T16:35:16.571Z,48.10
2022-10-05T16:38:22.567Z,48.10
2022-10-05T16:41:13.990Z,48.40
2022-10-05T16:44:09.701Z,48.40
2022-10-05T16:47:01.521Z,48.60
2022-10-05T16:49:49.966Z,48.70
2022-10-05T16:52:21.450Z,48.60
2022-10-05T16:54:53.910Z,48.80
2022-10-05T16:57:39.155Z,48.80
2022-10-05T17:00:13.441Z,49.10
2022-10-05T17:02:55.200Z,49.10
2022-10-05T17:05:44.416Z,49.30
2022-10-05T17:08:11.451Z,49.50
2022-10-05T17:10:41.194Z,49.30
2022-10-05T17:13:28.591Z,49.30
2022-10-05T17:16:17.448Z,49.60
2022-10-05T17:18:59.771Z,49.80
2022-10-05T17:21:55.732Z,50.30
2022-10-05T17:24:47.398Z,51.10
2022-10-05T17:27:39.691Z,51.30
2022-10-05T17:30:48.468Z,51.10
2022-10-05T17:33:44.534Z,51.60
2022-10-05T17:36:18.836Z,51.70
2022-10-05T17:38:47.691Z,52.00
2022-10-05T17:41:30.358Z,51.90
2022-10-05T17:44:13.497Z,52.20
2022-10-05T17:46:47.685Z,52.60
2022-10-05T17:49:20.585Z,52.60
2022-10-05T17:52:09.386Z,52.30
2022-10-05T17:55:04.379Z,52.40
2022-10-05T17:57:34.298Z,52.80
2022-10-05T18:00:31.639Z,52.70
2022-10-05T18:02:59.022Z,52.60
2022-10-05T18:05:30.332Z,52.80
2022-10-05T18:08:13.245Z,53.00
2022-10-05T18:11:09.380Z,53.30
2022-10-05T18:13:50.178Z,53.40
2022-10-05T18:16:59.847Z,53.40
2022-10-05T18:19:31.650Z,53.60
2022-10-05T18:22:17.848Z,53.30
2022-10-05T18:24:56.085Z,53.60
2022-10-05T18:28:00.456Z,53.50
2022-10-05T18:30:34.148Z,54.00
2022-10-05T18:33:38.106Z,53.40
2022-10-05T18:36:23.903Z,53.60
2022-10-05T18:39:07.020Z,53.30
2022-10-05T18:41:56.761Z,53.50
2022-10-05T18:44:40.404Z,53.60
2022-10-05T18:47:24.224Z,53.70
2022-10-05T18:50:11.955Z,53.60
2022-10-05T18:52:55.629Z,53.50
2022-10-05T18:56:03.559Z,53.40
2022-10-05T18:58:35.380Z,53.60
2022-10-05T19:01:08.356Z,53.60
2022-10-05T19:03:54.819Z,53.60
2022-10-05T19:06:41.384Z,53.80
2022-10-05T19:09:29.710Z,53.80
2022-10-05T19:11:58.080Z,53.90
2022-10-05T19:14:34.733Z,53.90
2022-10-05T19:17:23.138Z,54.00
2022-10-05T19:20:27.313Z,54.40
2022-10-05T19:23:28.498Z,54.40
2022-10-05T19:26:07.638Z,54.30
2022-10-05T19:28:45.472Z,54.30
2022-10-05T19:31:29.155Z,54.20
2022-10-05T19:34:28.442Z,54.10
2022-10-05T19:37:08.353Z,54.50
2022-10-05T19:39:44.946Z,54.40
2022-10-05T19:42:18.440Z,54.20
2022-10-05T19:45:24.279Z,54.30
2022-10-05T19:48:14.843Z,54.60
2022-10-05T19:50:57.709Z,54.60
2022-10-05T19:53:44.332Z,55.20
2022-10-05T19:56:21.177Z,54.90
2022-10-05T19:58:50.053Z,54.80
2022-10-05T20:01:26.982Z,54.90
2022-10-05T20:03:54.280Z,54.90
2022-10-05T20:06:22.647Z,54.60
2022-10-05T20:08:52.028Z,54.80
2022-10-05T20:11:20.161Z,55.10
2022-10-05T20:14:10.248Z,55.20
2022-10-05T20:16:55.897Z,55.60
2022-10-05T20:19:46.443Z,55.40
2022-10-05T20:22:33.109Z,55.40
2022-10-05T20:25:08.175Z,55.90
2022-10-05T20:27:55.698Z,55.90
2022-10-05T20:30:25.357Z,56.20
2022-10-05T20:32:58.189Z,55.90
2022-10-05T20:35:31.014Z,56.00
2022-10-05T20:38:00.237Z,56.00
2022-10-05T20:40:29.541Z,56.00
2022-10-05T20:42:59.246Z,56.20
2022-10-05T20:45:26.573Z,56.10
2022-10-05T20:47:53.553Z,56.40
2022-10-05T20:50:22.315Z,56.30
2022-10-05T20:52:49.511Z,56.30
2022-10-05T20:55:16.559Z,56.50
2022-10-05T20:57:46.208Z,56.70
2022-10-05T21:00:14.232Z,56.90
2022-10-05T21:02:41.289Z,57.10
2022-10-05T21:05:09.096Z,57.40
2022-10-05T21:07:36.176Z,57.50
2022-10-05T21:10:03.906Z,57.40
2022-10-05T21:12:33.140Z,57.60
2022-10-05T21:15:01.718Z,57.80
2022-10-05T21:17:29.820Z,57.70
2022-10-05T21:20:12.927Z,57.60
2022-10-05T21:22:40.269Z,58.10
2022-10-05T21:25:09.295Z,58.00
2022-10-05T21:27:36.429Z,58.60
2022-10-05T21:30:04.185Z,58.20
2022-10-05T21:32:31.749Z,58.00
2022-10-05T21:34:58.686Z,57.80
2022-10-05T21:37:25.807Z,58.00
2022-10-05T21:39:52.780Z,58.00
2022-10-05T21:42:19.792Z,58.00
2022-10-05T21:44:47.309Z,58.00
2022-10-05T21:47:14.309Z,58.00
2022-10-05T21:49:41.845Z,58.00
2022-10-05T21:52:08.848Z,58.50
2022-10-05T21:54:36.329Z,58.00
2022-10-05T21:57:03.606Z,57.90
2022-10-05T21:59:33.778Z,57.90
2022-10-05T22:02:00.891Z,57.90
2022-10-05T22:04:27.875Z,58.00
2022-10-05T22:06:55.874Z,58.00
2022-10-05T22:09:23.135Z,58.10
2022-10-05T22:11:50.103Z,58.20
2022-10-05T22:14:17.342Z,58.20
2022-10-05T22:16:44.979Z,58.30
2022-10-05T22:19:16.478Z,58.40
2022-10-05T22:21:43.513Z,58.40
2022-10-05T22:24:13.714Z,58.50
2022-10-05T22:26:43.460Z,58.70
2022-10-05T22:29:10.403Z,58.70
2022-10-05T22:31:38.234Z,58.70
2022-10-05T22:34:05.297Z,58.80
2022-10-05T22:36:35.458Z,58.50
2022-10-05T22:39:02.521Z,58.60
2022-10-05T22:41:30.294Z,58.50
2022-10-05T22:43:57.427Z,58.60
2022-10-05T22:46:24.667Z,58.80
2022-10-05T22:48:51.904Z,58.60
2022-10-05T22:51:19.126Z,58.60
2022-10-05T22:53:46.204Z,58.50
2022-10-05T22:56:14.545Z,58.60
2022-10-05T22:58:43.240Z,58.70
2022-10-05T23:01:13.252Z,58.60
2022-10-05T23:03:40.592Z,58.70
2022-10-05T23:06:10.744Z,58.60
2022-10-05T23:08:38.994Z,58.70
2022-10-05T23:11:08.504Z,58.70
2022-10-05T23:13:35.865Z,58.60
2022-10-05T23:16:08.879Z,58.70
2022-10-05T23:18:37.011Z,58.90
2022-10-05T23:21:07.513Z,58.70
2022-10-05T23:23:39.972Z,59.00
2022-10-05T23:26:09.238Z,59.20
2022-10-05T23:28:38.507Z,59.00
2022-10-05T23:31:08.887Z,59.00
2022-10-05T23:33:35.937Z,59.20
2022-10-05T23:36:08.973Z,59.50
2022-10-05T23:38:36.455Z,59.40
2022-10-05T23:41:05.544Z,59.60
2022-10-05T23:43:33.860Z,59.70
2022-10-05T23:46:02.362Z,60.00
2022-10-05T23:48:31.198Z,60.00
2022-10-05T23:51:00.568Z,60.60
2022-10-05T23:53:27.686Z,60.50
2022-10-05T23:55:55.622Z,60.90
2022-10-05T23:58:24.412Z,60.80
